Time;durP1;ratioP1;P1;durP2;ratioP2;P2;SDS_P1;SDS_P2;PMS_P1;PMS_P2;Temp;Humidity;BMP_temperature;BMP_pressure;BME280_temperature;BME280_humidity;BME280_pressure;Samples;Min_cycle;Max_cycle;Signal;HPM_P1;HPM_P2
2022/11/19 00:00:52;;;;;;;20.05;10.50;;;;;;;-6.27;75.16;99041.25;4935718;29;20513;-67
2022/11/19 00:03:20;;;;;;;18.50;10.52;;;;;;;-6.28;75.29;99043.03;4937477;29;20048;-66
2022/11/19 00:05:48;;;;;;;23.40;12.38;;;;;;;-6.28;75.63;99045.63;4920079;29;20039;-66
2022/11/19 00:08:19;;;;;;;21.92;12.07;;;;;;;-6.17;75.36;99047.22;4904717;29;20497;-65
2022/11/19 00:10:46;;;;;;;16.77;10.30;;;;;;;-6.13;74.98;99050.34;4937247;29;20452;-65
2022/11/19 00:13:13;;;;;;;20.38;11.32;;;;;;;-6.16;74.62;99041.13;4937371;29;20044;-66
2022/11/19 00:15:39;;;;;;;23.67;11.93;;;;;;;-6.17;75.12;99042.06;4937153;29;20048;-66
2022/11/19 00:18:05;;;;;;;18.17;10.63;;;;;;;-6.15;74.93;99042.72;4919741;29;20047;-66
2022/11/19 00:20:32;;;;;;;18.52;10.88;;;;;;;-6.15;74.74;99036.75;4919653;29;20046;-66
2022/11/19 00:22:59;;;;;;;18.30;10.20;;;;;;;-6.11;74.50;99035.56;4919992;29;20043;-66
2022/11/19 00:25:27;;;;;;;15.98;10.73;;;;;;;-6.10;73.64;99039.75;4904418;29;20055;-66
2022/11/19 00:27:53;;;;;;;18.45;9.68;;;;;;;-6.11;74.07;99033.78;4937079;29;20047;-66
2022/11/19 00:30:19;;;;;;;17.48;10.05;;;;;;;-6.11;74.30;99044.09;4919509;29;20552;-66
2022/11/19 00:32:45;;;;;;;14.48;9.27;;;;;;;-6.21;74.24;99038.13;4936928;29;20050;-66
2022/11/19 00:35:11;;;;;;;18.25;9.73;;;;;;;-6.30;74.43;99037.19;4903865;29;20074;-67
2022/11/19 00:37:37;;;;;;;19.98;9.73;;;;;;;-6.26;74.94;99046.31;4927154;29;20051;-65
2022/11/19 00:40:04;;;;;;;17.48;9.45;;;;;;;-6.26;74.73;99059.19;4938371;29;20130;-66
2022/11/19 00:42:30;;;;;;;21.05;10.82;;;;;;;-6.25;74.37;99068.56;4938433;29;20448;-66
2022/11/19 00:44:55;;;;;;;20.05;9.95;;;;;;;-6.19;74.70;99065.41;4955643;29;20138;-66
2022/11/19 00:47:21;;;;;;;18.17;9.95;;;;;;;-6.12;74.37;99067.44;4955628;29;20043;-66
2022/11/19 00:49:47;;;;;;;14.68;9.57;;;;;;;-6.12;73.75;99070.03;4938347;29;20039;-66
2022/11/19 00:52:13;;;;;;;20.27;10.73;;;;;;;-6.10;73.56;99073.28;4955504;29;20520;-66
2022/11/19 00:54:38;;;;;;;13.93;9.82;;;;;;;-6.10;74.15;99084.41;4955382;29;20126;-66
2022/11/19 00:57:04;;;;;;;16.55;9.60;;;;;;;-5.98;73.67;99080.72;4955139;28;20048;-67
2022/11/19 00:59:29;;;;;;;21.90;10.15;;;;;;;-6.02;73.34;99084.53;4954992;29;20044;-66
2022/11/19 01:01:55;;;;;;;12.15;7.22;;;;;;;-5.95;73.04;99092.53;4938300;29;20047;-67
2022/11/19 01:04:21;;;;;;;14.43;8.23;;;;;;;-5.90;72.83;99079.19;4955374;29;20039;-66
2022/11/19 01:06:46;;;;;;;13.10;7.13;;;;;;;-5.96;73.09;99081.41;4955637;29;20142;-66
2022/11/19 01:09:12;;;;;;;14.70;7.28;;;;;;;-5.91;73.21;99091.31;4955527;29;20050;-66
2022/11/19 01:11:38;;;;;;;12.20;6.95;;;;;;;-5.84;73.28;99089.78;4953720;29;20051;-66
2022/11/19 01:14:05;;;;;;;12.13;5.72;;;;;;;-5.81;72.65;99097.25;4919457;29;20036;-66
2022/11/19 01:16:33;;;;;;;11.73;6.72;;;;;;;-5.84;72.68;99097.50;4936242;29;20051;-66
2022/11/19 01:18:59;;;;;;;9.50;6.07;;;;;;;-5.72;73.08;99103.34;4936227;29;20055;-66
2022/11/19 01:21:28;;;;;;;11.75;6.38;;;;;;;-5.83;72.44;99106.88;4902996;29;20422;-65
2022/11/19 01:23:54;;;;;;;11.40;6.63;;;;;;;-5.67;73.08;99110.66;4935896;29;20418;-66
2022/11/19 01:26:20;;;;;;;11.93;6.30;;;;;;;-5.64;72.20;99116.34;4936075;29;20047;-66
2022/11/19 01:28:45;;;;;;;13.82;6.72;;;;;;;-5.64;71.93;99107.81;4919023;29;20202;-66
2022/11/19 01:31:12;;;;;;;10.77;6.47;;;;;;;-5.58;71.74;99120.16;4919168;29;20130;-67
2022/11/19 01:33:38;;;;;;;11.95;5.63;;;;;;;-5.51;72.02;99113.47;4936378;29;20094;-66
2022/11/19 01:36:07;;;;;;;9.40;5.90;;;;;;;-5.45;71.57;99125.81;4934561;29;20047;-66
2022/11/19 01:38:33;;;;;;;12.05;6.47;;;;;;;-5.51;70.88;99123.78;4919032;29;20062;-66
2022/11/19 01:40:59;;;;;;;14.35;6.80;;;;;;;-5.46;71.10;99116.44;4918655;29;20047;-66
2022/11/19 01:43:38;;;;;;;13.50;6.82;;;;;;;-5.37;71.50;99118.16;4903048;29;20043;-67
2022/11/19 01:46:04;;;;;;;14.55;7.60;;;;;;;-5.31;70.26;99120.19;4918409;29;20418;-67
2022/11/19 01:48:31;;;;;;;13.27;5.88;;;;;;;-5.41;70.15;99132.34;4918704;29;20055;-66
2022/11/19 01:50:59;;;;;;;10.30;6.63;;;;;;;-5.29;71.40;99130.38;4918778;29;20048;-66
2022/11/19 01:53:28;;;;;;;10.63;6.40;;;;;;;-5.28;70.00;99134.59;4918560;29;20130;-66
2022/11/19 01:55:55;;;;;;;11.27;5.70;;;;;;;-5.33;70.62;99141.94;4935736;29;20043;-67
2022/11/19 01:58:23;;;;;;;12.55;6.57;;;;;;;-5.20;70.98;99139.88;4902779;29;20058;-67
2022/11/19 02:00:49;;;;;;;13.07;7.05;;;;;;;-5.08;70.99;99146.47;4935515;29;20107;-66
2022/11/19 02:03:15;;;;;;;12.57;7.03;;;;;;;-5.02;70.69;99145.09;4935678;29;20405;-66
2022/11/19 02:05:41;;;;;;;11.73;6.25;;;;;;;-4.92;70.69;99157.97;4918318;29;20416;-66
2022/11/19 02:08:28;;;;;;;11.30;6.45;;;;;;;-4.87;70.69;99161.75;4902786;29;20083;-66
2022/11/19 02:11:19;;;;;;;13.18;6.82;;;;;;;-4.81;69.57;99168.13;4934327;29;20071;-67
2022/11/19 02:13:48;;;;;;;13.18;7.30;;;;;;;-4.83;69.06;99168.25;4935163;29;20482;-66
2022/11/19 02:16:20;;;;;;;15.32;8.85;;;;;;;-4.77;69.58;99164.28;4935198;29;20054;-65
2022/11/19 02:19:02;;;;;;;13.52;7.68;;;;;;;-4.68;69.18;99160.81;4918184;29;20051;-66
2022/11/19 02:21:58;;;;;;;11.85;7.03;;;;;;;-4.69;68.76;99168.72;4902398;29;20043;-66
2022/11/19 02:24:36;;;;;;;13.85;6.93;;;;;;;-4.75;69.07;99174.47;4934389;29;20056;-67
2022/11/19 02:27:31;;;;;;;12.73;7.20;;;;;;;-4.68;68.91;99184.09;4917867;29;20044;-66
2022/11/19 02:30:17;;;;;;;11.63;7.43;;;;;;;-4.74;68.86;99173.50;4927574;29;20139;-66
2022/11/19 02:32:47;;;;;;;15.80;8.30;;;;;;;-4.74;69.68;99165.75;4917902;29;20552;-66
2022/11/19 02:35:15;;;;;;;;;;;;;;;-4.91;69.27;99167.34;4918287;29;20138;-66
2022/11/19 02:38:00;;;;;;;14.50;8.25;;;;;;;-4.90;70.01;99156.88;4917752;29;20013;-66
2022/11/19 02:40:30;;;;;;;16.17;7.53;;;;;;;-4.88;70.82;99161.88;4917524;29;20052;-66
2022/11/19 02:43:03;;;;;;;9.48;6.28;;;;;;;-4.86;70.33;99165.94;4902112;29;20058;-67
2022/11/19 02:45:35;;;;;;;10.90;6.25;;;;;;;-4.79;69.61;99161.03;4901687;29;20043;-66
2022/11/19 02:48:28;;;;;;;11.13;5.85;;;;;;;-4.81;68.70;99161.16;4917756;29;20040;-66
2022/11/19 02:50:57;;;;;;;10.35;6.78;;;;;;;-4.92;70.96;99161.34;4934427;29;20433;-66
2022/11/19 02:53:23;;;;;;;10.27;6.20;;;;;;;-4.81;70.51;99158.56;4917604;29;20142;-65
2022/11/19 03:06:48;;;;;;;10.57;6.85;;;;;;;-4.75;69.62;99188.22;4920229;29;20040;-66
2022/11/19 03:09:15;;;;;;;11.07;6.63;;;;;;;-4.77;69.40;99179.78;4901876;29;20550;-66
2022/11/19 03:11:43;;;;;;;13.77;7.18;;;;;;;-4.82;69.51;99180.22;4917336;29;20054;-66
2022/11/19 03:17:23;;;;;;;11.60;7.20;;;;;;;-4.61;70.52;99174.81;4934568;29;20050;-67
2022/11/19 03:20:01;;;;;;;15.27;6.85;;;;;;;-4.59;68.52;99177.22;4933964;29;20130;-67
2022/11/19 03:22:57;;;;;;;11.00;7.05;;;;;;;-4.60;68.93;99178.19;4934096;29;20078;-66
2022/11/19 03:25:32;;;;;;;15.48;7.18;;;;;;;-4.72;69.76;99174.19;4924806;29;20142;-66
2022/11/19 03:28:01;;;;;;;14.13;7.07;;;;;;;-4.84;69.91;99183.91;4917393;29;20047;-66
2022/11/19 03:30:28;;;;;;;12.25;6.63;;;;;;;-4.91;70.13;99188.00;4901864;29;20541;-66
2022/11/19 03:32:59;;;;;;;11.10;7.22;;;;;;;-4.96;71.31;99195.41;4917879;29;20498;-65
2022/11/19 03:35:29;;;;;;;12.50;7.18;;;;;;;-4.80;72.11;99196.41;4902265;29;20126;-66
2022/11/19 03:37:58;;;;;;;11.55;6.68;;;;;;;-4.60;70.96;99199.69;4935833;29;20056;-66
2022/11/19 03:40:24;;;;;;;11.82;7.72;;;;;;;-4.59;70.70;99200.50;4904767;29;20043;-66
2022/11/19 03:42:52;;;;;;;16.52;7.05;;;;;;;-4.69;70.21;99194.59;4902495;29;20047;-67
2022/11/19 03:45:23;;;;;;;13.75;6.82;;;;;;;-4.67;71.48;99203.03;4917200;29;20044;-67
2022/11/19 03:47:50;;;;;;;10.02;5.80;;;;;;;-4.65;70.82;99211.44;4917214;29;20130;-66
2022/11/19 03:50:23;;;;;;;12.27;5.93;;;;;;;-4.70;71.06;99205.91;4917284;29;20040;-67
2022/11/19 03:52:49;;;;;;;11.95;5.85;;;;;;;-4.72;71.00;99213.78;4917223;29;20055;-67
2022/11/19 03:55:15;;;;;;;10.40;6.40;;;;;;;-4.65;70.60;99216.59;4934120;29;20040;-67
2022/11/19 03:57:41;;;;;;;15.77;6.40;;;;;;;-4.72;70.37;99223.34;4901308;29;20043;-67
2022/11/19 04:00:07;;;;;;;15.05;7.43;;;;;;;-4.78;70.64;99229.06;4934174;29;20103;-67
2022/11/19 04:02:39;;;;;;;14.77;8.23;;;;;;;-4.94;71.64;99178.81;4934118;29;20527;-67
2022/11/19 04:05:05;;;;;;;12.43;7.20;;;;;;;-4.46;71.52;99232.03;4885654;29;20187;-67
2022/11/19 04:07:30;;;;;;;21.38;10.50;;;;;;;-4.52;70.61;99231.81;4917062;29;20122;-67
2022/11/19 04:09:56;;;;;;;15.20;9.15;;;;;;;-4.48;71.42;99233.94;4916886;29;20040;-66
2022/11/19 04:12:23;;;;;;;19.40;9.52;;;;;;;-4.63;71.61;99237.97;4933916;29;20127;-65
2022/11/19 04:14:50;;;;;;;14.85;7.68;;;;;;;-4.61;71.75;99236.06;4901267;29;20154;-66
2022/11/19 04:17:16;;;;;;;18.38;8.38;;;;;;;-4.67;70.14;99242.63;4916627;29;20572;-66
2022/11/19 04:19:42;;;;;;;14.35;8.00;;;;;;;-4.54;71.29;99242.28;4934011;29;20166;-66
2022/11/19 04:22:08;;;;;;;13.52;7.70;;;;;;;-4.52;71.55;99253.31;4885244;29;20051;-67
2022/11/19 04:24:34;;;;;;;17.67;8.93;;;;;;;-4.44;70.90;99248.25;4933435;29;20080;-67
2022/11/19 04:27:00;;;;;;;17.65;8.73;;;;;;;-4.52;71.67;99258.50;4933859;29;20048;-66
2022/11/19 04:29:26;;;;;;;13.68;6.97;;;;;;;-4.51;70.90;99260.09;4933459;29;20417;-66
2022/11/19 04:31:51;;;;;;;16.83;8.10;;;;;;;-4.40;70.67;99238.41;4933683;29;20066;-65
2022/11/19 04:34:17;;;;;;;14.63;8.50;;;;;;;-4.44;69.64;99250.84;4919348;29;20083;-66
2022/11/19 04:36:42;;;;;;;15.30;8.20;;;;;;;-4.53;70.15;99261.22;4937162;29;20047;-67
2022/11/19 04:39:09;;;;;;;17.17;9.57;;;;;;;-4.47;71.06;99258.03;4904145;29;20413;-67
2022/11/19 04:41:35;;;;;;;19.90;9.55;;;;;;;-4.34;69.96;99264.50;4919755;29;20047;-66
2022/11/19 04:44:01;;;;;;;13.73;7.85;;;;;;;-4.27;70.03;99279.47;4919701;29;20517;-67
2022/11/19 04:46:27;;;;;;;12.45;7.05;;;;;;;-4.24;69.74;99279.97;4919810;29;20130;-67
2022/11/19 04:48:52;;;;;;;15.32;7.97;;;;;;;-4.15;71.25;99283.47;4936798;29;20066;-66
2022/11/19 04:51:18;;;;;;;15.05;7.40;;;;;;;-4.18;70.41;99261.28;4903891;29;20051;-67
2022/11/19 04:53:43;;;;;;;17.05;7.85;;;;;;;-4.05;70.30;99266.13;4919517;29;20035;-64
2022/11/19 04:56:09;;;;;;;14.18;7.47;;;;;;;-4.16;69.49;99261.97;4903951;29;20572;-63
2022/11/19 04:58:35;;;;;;;11.75;8.23;;;;;;;-4.18;69.03;99268.22;4919612;29;20054;-63
2022/11/19 05:01:01;;;;;;;17.55;8.88;;;;;;;-4.16;69.79;99271.50;4919683;29;20556;-64
2022/11/19 05:03:26;;;;;;;14.38;7.95;;;;;;;-4.21;70.12;99273.69;4935899;29;20043;-63
2022/11/19 05:05:52;;;;;;;15.90;8.18;;;;;;;-4.11;71.55;99279.66;4936343;29;20044;-64
2022/11/19 05:08:18;;;;;;;15.90;8.45;;;;;;;-4.04;70.50;99277.28;4903841;29;20046;-64
2022/11/19 05:10:44;;;;;;;20.88;9.95;;;;;;;-4.00;70.16;99273.44;4903597;29;20040;-64
2022/11/19 05:13:09;;;;;;;16.73;8.93;;;;;;;-4.12;69.47;99278.84;4919503;29;20054;-65
2022/11/19 05:15:35;;;;;;;13.40;7.32;;;;;;;-4.30;70.72;99272.00;4903435;29;20047;-64
2022/11/19 05:18:01;;;;;;;14.05;7.47;;;;;;;-4.31;71.17;99267.78;4903628;29;20509;-64
2022/11/19 05:20:27;;;;;;;16.45;8.02;;;;;;;-4.30;72.18;99261.63;4903397;29;20062;-64
2022/11/19 05:22:52;;;;;;;17.75;9.35;;;;;;;-4.23;72.17;99255.75;4918848;29;20044;-64
2022/11/19 05:25:18;;;;;;;15.88;7.50;;;;;;;-4.26;69.87;99257.81;4903369;29;20044;-64
2022/11/19 05:27:44;;;;;;;10.02;6.00;;;;;;;-4.35;70.65;99264.69;4936367;29;20044;-63
2022/11/19 05:30:10;;;;;;;17.83;8.00;;;;;;;-4.45;71.10;99262.13;4936051;29;20146;-63
2022/11/19 05:32:37;;;;;;;12.90;7.10;;;;;;;-4.47;71.11;99258.88;4936177;29;20378;-64
2022/11/19 05:35:03;;;;;;;11.32;7.15;;;;;;;-4.72;71.40;99223.34;4918707;29;20048;-65
2022/11/19 05:37:29;;;;;;;16.60;8.25;;;;;;;-4.61;70.93;99251.59;4918691;29;20521;-63
2022/11/19 05:39:55;;;;;;;13.68;6.82;;;;;;;-4.64;71.90;99264.81;4919005;29;20043;-64
2022/11/19 05:42:20;;;;;;;11.95;6.93;;;;;;;-4.59;72.19;99273.78;4934517;29;20519;-63
2022/11/19 05:44:46;;;;;;;11.73;6.85;;;;;;;-4.55;72.22;99265.72;4935597;29;20057;-63
2022/11/19 05:47:14;;;;;;;15.23;7.22;;;;;;;-4.60;72.82;99269.53;4918819;29;20486;-64
2022/11/19 05:49:39;;;;;;;16.60;8.05;;;;;;;-4.58;73.01;99272.81;4902875;29;20043;-64
2022/11/19 05:52:05;;;;;;;13.43;7.80;;;;;;;-4.54;72.65;99283.69;4918876;29;20058;-63
2022/11/19 05:54:31;;;;;;;15.35;7.57;;;;;;;-4.51;72.53;99298.91;4935546;29;20048;-64
2022/11/19 05:56:56;;;;;;;13.35;8.27;;;;;;;-4.53;73.58;99293.06;4918769;29;20130;-64
2022/11/19 05:59:22;;;;;;;17.05;7.30;;;;;;;-4.52;73.17;99279.19;4918317;29;20134;-65
2022/11/19 06:01:48;;;;;;;15.63;8.02;;;;;;;-4.42;73.01;99281.72;4935436;29;20087;-65
2022/11/19 06:04:13;;;;;;;15.38;9.05;;;;;;;-4.41;72.49;99289.34;4918343;29;20055;-64
2022/11/19 06:06:39;;;;;;;21.25;9.02;;;;;;;-4.31;72.26;99288.50;4918531;29;20043;-64
2022/11/19 06:09:04;;;;;;;17.80;9.68;;;;;;;-4.28;72.36;99298.53;4934902;29;20043;-65
2022/11/19 06:14:23;;;;;;;21.15;10.38;;;;;;;-4.23;71.67;99296.34;4918123;29;20126;-63
2022/11/19 06:16:52;;;;;;;19.25;9.38;;;;;;;-4.21;71.98;99291.81;4918576;29;20158;-64
2022/11/19 06:19:18;;;;;;;16.98;9.82;;;;;;;-4.18;72.63;99284.56;4902408;29;20062;-67
2022/11/19 06:21:44;;;;;;;19.23;9.43;;;;;;;-4.13;72.79;99286.75;4918134;29;20051;-66
2022/11/19 06:24:12;;;;;;;24.45;10.80;;;;;;;-4.11;73.31;99279.66;4917741;29;20043;-67
2022/11/19 06:26:38;;;;;;;20.17;9.82;;;;;;;-4.12;72.89;99278.00;4918292;29;20132;-66
2022/11/19 06:29:04;;;;;;;21.67;10.70;;;;;;;-4.09;72.81;99284.66;4917784;29;20547;-67
2022/11/19 06:31:29;;;;;;;17.42;9.00;;;;;;;-4.06;73.56;99287.78;4917957;29;20461;-67
2022/11/19 06:33:55;;;;;;;16.65;9.18;;;;;;;-4.04;73.92;99288.44;4917666;29;20138;-66
2022/11/19 06:36:22;;;;;;;20.63;10.70;;;;;;;-3.99;74.11;99294.00;4917546;29;20135;-66
2022/11/19 06:38:48;;;;;;;15.10;8.93;;;;;;;-3.91;72.64;99299.28;4902028;29;20572;-67
2022/11/19 06:41:13;;;;;;;17.95;10.27;;;;;;;-3.77;74.00;99304.91;4917550;29;20134;-67
2022/11/19 06:43:39;;;;;;;21.48;10.20;;;;;;;-3.78;72.73;99306.69;4917707;29;20509;-67
2022/11/19 06:46:05;;;;;;;16.63;8.77;;;;;;;-3.71;73.29;99306.91;4934551;29;20043;-67
2022/11/19 06:48:30;;;;;;;14.02;7.40;;;;;;;-3.70;73.09;99300.78;4917614;29;20090;-67
2022/11/19 06:50:56;;;;;;;14.90;8.40;;;;;;;-3.62;72.71;99306.00;4886315;29;20486;-67
2022/11/19 06:53:22;;;;;;;15.13;8.80;;;;;;;-3.50;72.51;99314.38;4917516;29;20044;-67
2022/11/19 06:55:47;;;;;;;16.33;9.00;;;;;;;-3.45;72.80;99312.16;4916877;29;20143;-68
2022/11/19 06:58:14;;;;;;;15.30;8.55;;;;;;;-3.34;73.38;99316.31;4917573;29;20052;-64
2022/11/19 07:00:40;;;;;;;14.48;8.38;;;;;;;-3.24;72.55;99327.38;4917359;29;20039;-65
2022/11/19 07:03:05;;;;;;;16.38;7.60;;;;;;;-3.21;72.24;99325.34;4886099;29;20040;-66
2022/11/19 07:05:31;;;;;;;14.77;8.43;;;;;;;-3.15;72.60;99323.88;4917312;29;20051;-67
2022/11/19 07:07:57;;;;;;;14.13;7.68;;;;;;;-3.12;72.43;99328.78;4917695;29;20151;-71
2022/11/19 07:10:23;;;;;;;14.45;7.50;;;;;;;-2.91;72.53;99343.19;4917336;29;20071;-67
2022/11/19 07:12:48;;;;;;;14.50;8.10;;;;;;;-2.72;71.33;99355.16;4917003;29;20134;-66
2022/11/19 07:15:14;;;;;;;15.63;8.60;;;;;;;-2.59;70.74;99348.59;4917235;29;20047;-67
2022/11/19 07:17:41;;;;;;;13.43;8.30;;;;;;;-2.60;70.54;99346.97;4934413;29;20051;-66
2022/11/19 07:20:07;;;;;;;11.63;7.30;;;;;;;-2.52;70.69;99364.38;4886196;29;20055;-66
2022/11/19 07:22:33;;;;;;;12.43;7.20;;;;;;;-2.44;69.96;99367.00;4901406;29;20078;-66
2022/11/19 07:24:59;;;;;;;12.07;6.93;;;;;;;-2.53;70.09;99365.31;4901260;29;20079;-64
2022/11/19 07:27:24;;;;;;;15.35;7.47;;;;;;;-2.52;70.61;99372.97;4933956;29;20051;-66
2022/11/19 07:29:50;;;;;;;15.80;8.07;;;;;;;-2.48;70.21;99381.25;4901277;29;20059;-66
2022/11/19 07:32:16;;;;;;;12.25;7.45;;;;;;;-2.53;70.09;99376.53;4917080;29;20470;-69
2022/11/19 07:34:41;;;;;;;14.90;7.53;;;;;;;-2.47;69.62;99387.25;4916905;29;20035;-67
2022/11/19 07:37:07;;;;;;;16.45;8.40;;;;;;;-2.55;70.01;99388.84;4916952;29;20056;-70
2022/11/19 07:39:33;;;;;;;14.07;8.00;;;;;;;-2.61;70.01;99391.25;4917062;29;20127;-66
2022/11/19 07:44:43;;;;;;;14.48;8.05;;;;;;;-2.62;70.50;99402.56;4916971;29;20291;-67
2022/11/19 07:47:09;;;;;;;13.95;7.85;;;;;;;-2.58;70.52;99396.13;4933948;29;20545;-70
2022/11/19 07:49:35;;;;;;;14.35;7.22;;;;;;;-2.50;69.68;99401.34;4916875;29;20043;-65
2022/11/19 07:52:01;;;;;;;12.38;7.25;;;;;;;-2.59;70.30;99407.47;4916645;29;20048;-66
2022/11/19 07:54:27;;;;;;;14.05;7.10;;;;;;;-2.66;70.00;99404.66;4901319;29;20047;-65
2022/11/19 07:56:53;;;;;;;14.50;7.38;;;;;;;-2.52;69.83;99398.13;4933825;29;20058;-65
2022/11/19 07:59:18;;;;;;;15.57;8.13;;;;;;;-2.48;69.96;99399.41;4934162;29;20430;-65
2022/11/19 08:01:44;;;;;;;14.73;7.57;;;;;;;-2.53;70.00;99397.31;4917084;29;20472;-65
2022/11/19 08:04:10;;;;;;;14.73;7.20;;;;;;;-2.54;69.18;99407.81;4917159;29;20046;-66
2022/11/19 08:06:36;;;;;;;14.43;7.50;;;;;;;-2.61;70.17;99410.22;4933758;29;20052;-67
2022/11/19 08:09:03;;;;;;;11.77;6.97;;;;;;;-2.52;69.78;99411.09;4919623;29;20410;-68
2022/11/19 08:11:28;;;;;;;11.93;7.75;;;;;;;-2.57;70.05;99418.50;4937267;29;20063;-68
2022/11/19 08:13:54;;;;;;;13.52;7.32;;;;;;;-2.57;70.12;99416.72;4920494;29;20540;-69
2022/11/19 08:19:08;;;;;;;13.43;7.25;;;;;;;-2.47;69.66;99421.84;4937540;29;20035;-68
2022/11/19 08:21:35;;;;;;;11.77;6.85;;;;;;;-2.51;69.73;99421.31;4937372;29;20043;-69
2022/11/19 08:24:01;;;;;;;17.88;7.78;;;;;;;-2.48;69.99;99409.81;4920579;29;20413;-68
2022/11/19 08:26:27;;;;;;;15.20;7.82;;;;;;;-2.44;70.20;99408.56;4920417;29;20048;-69
2022/11/19 08:28:53;;;;;;;11.63;7.35;;;;;;;-2.32;69.92;99396.94;4937302;29;20458;-70
2022/11/19 08:31:19;;;;;;;13.02;6.93;;;;;;;-2.35;69.55;99396.44;4937264;29;20049;-67
2022/11/19 08:33:44;;;;;;;16.25;7.60;;;;;;;-2.38;69.40;99402.75;4904271;29;20040;-70
2022/11/19 08:36:10;;;;;;;21.60;7.30;;;;;;;-2.42;69.49;99387.63;4904537;29;20417;-69
2022/11/19 08:38:36;;;;;;;12.95;6.90;;;;;;;-2.46;69.81;99401.88;4920207;29;20043;-70
2022/11/19 08:43:45;;;;;;;13.40;7.85;;;;;;;-2.55;70.28;99386.25;4920048;29;20482;-68
2022/11/19 08:46:11;;;;;;;13.63;7.97;;;;;;;-2.53;70.87;99376.53;4938748;29;20131;-68
2022/11/19 08:48:37;;;;;;;12.90;7.13;;;;;;;-2.52;70.46;99377.34;4955881;29;20425;-67
2022/11/19 08:51:04;;;;;;;14.45;7.95;;;;;;;-2.45;70.36;99367.97;4938697;29;20118;-68
2022/11/19 08:53:30;;;;;;;13.38;7.28;;;;;;;-2.52;70.91;99366.97;4954912;29;20050;-68
2022/11/19 08:55:55;;;;;;;9.70;6.32;;;;;;;-2.55;70.75;99378.47;4954478;29;20410;-69
2022/11/19 08:58:22;;;;;;;10.43;6.78;;;;;;;-2.52;70.77;99377.34;4954325;29;20047;-69
2022/11/19 09:00:48;;;;;;;10.18;6.90;;;;;;;-2.52;70.49;99380.75;4954749;29;20109;-69
2022/11/19 09:03:14;;;;;;;11.43;6.80;;;;;;;-2.44;70.89;99382.59;4938793;29;20054;-68
2022/11/19 09:05:40;;;;;;;11.02;5.07;;;;;;;-2.56;70.58;99376.00;4955556;29;20421;-66
2022/11/19 09:08:06;;;;;;;9.27;5.55;;;;;;;-2.58;71.17;99383.16;4922567;29;20412;-68
2022/11/19 09:10:32;;;;;;;14.10;6.15;;;;;;;-2.54;71.27;99380.09;4954319;29;20055;-68
2022/11/19 09:13:00;;;;;;;11.52;6.10;;;;;;;-2.49;70.98;99371.03;4955918;29;20461;-68
2022/11/19 09:15:26;;;;;;;6.93;4.22;;;;;;;-2.59;70.97;99386.69;4955352;29;20051;-68
2022/11/19 09:17:52;;;;;;;9.43;6.32;;;;;;;-2.52;71.08;99383.34;4954308;29;20047;-67
2022/11/19 09:20:18;;;;;;;10.75;6.57;;;;;;;-2.51;70.86;99374.59;4929830;29;20040;-70
2022/11/19 09:22:44;;;;;;;10.15;6.05;;;;;;;-2.57;70.79;99375.19;4919042;29;20422;-71
2022/11/19 09:25:09;;;;;;;9.38;6.15;;;;;;;-2.43;70.92;99380.81;4936127;29;20044;-67
2022/11/19 09:27:36;;;;;;;11.55;5.97;;;;;;;-2.41;70.46;99386.63;4936262;29;20054;-69
2022/11/19 09:30:03;;;;;;;10.38;5.75;;;;;;;-2.39;70.32;99387.31;4918869;29;20047;-69
2022/11/19 09:32:29;;;;;;;11.75;7.10;;;;;;;-2.43;70.43;99386.00;4936324;29;20580;-66
2022/11/19 09:34:55;;;;;;;13.77;7.30;;;;;;;-2.36;70.16;99403.38;4919364;29;20122;-68
2022/11/19 09:37:21;;;;;;;10.25;7.32;;;;;;;-2.45;70.26;99403.50;4887402;29;20046;-65
2022/11/19 09:39:47;;;;;;;11.15;6.55;;;;;;;-2.46;71.08;99402.69;4936174;29;20043;-70
2022/11/19 09:42:35;;;;;;;6.97;5.45;;;;;;;-2.40;70.50;99412.47;4936001;29;20051;-70
2022/11/19 09:45:14;;;;;;;9.85;6.03;;;;;;;-2.46;70.86;99413.06;4903324;29;20044;-72
2022/11/19 09:47:55;;;;;;;7.72;4.65;;;;;;;-2.51;70.27;99397.13;4918864;29;20143;-70
2022/11/19 09:50:25;;;;;;;8.57;5.68;;;;;;;-2.43;70.23;99402.38;4920533;29;20138;-70
2022/11/19 09:53:11;;;;;;;10.38;5.78;;;;;;;-2.33;70.52;99410.06;4940397;29;20047;-72
2022/11/19 09:55:43;;;;;;;8.77;5.93;;;;;;;-2.28;70.12;99415.59;4907852;29;20044;-70
2022/11/19 09:58:31;;;;;;;7.38;5.22;;;;;;;-2.26;70.07;99429.25;4904551;29;20048;-71
2022/11/19 10:00:58;;;;;;;8.48;5.03;;;;;;;-2.42;69.85;99422.16;4920465;29;20050;-71
2022/11/19 10:03:25;;;;;;;9.85;5.68;;;;;;;-2.55;70.34;99416.59;4919118;29;20047;-70
2022/11/19 10:06:20;;;;;;;10.02;5.90;;;;;;;-2.52;70.86;99416.28;4902741;29;20055;-70
2022/11/19 10:09:05;;;;;;;8.52;5.13;;;;;;;-2.64;71.33;99423.50;4918332;29;20055;-71
2022/11/19 10:11:37;;;;;;;7.15;3.88;;;;;;;-2.73;71.15;99418.41;4918049;29;20131;-69
2022/11/19 10:14:06;;;;;;;7.38;4.68;;;;;;;-2.82;71.37;99420.13;4935293;29;20039;-67
2022/11/19 10:16:37;;;;;;;8.75;5.85;;;;;;;-2.84;72.04;99409.88;4918134;29;20058;-71
2022/11/19 10:19:13;;;;;;;11.25;5.70;;;;;;;-2.90;72.59;99404.50;4918053;29;20043;-70
2022/11/19 10:21:55;;;;;;;6.95;4.20;;;;;;;-2.92;72.29;99409.00;4935539;29;20048;-71
2022/11/19 10:24:41;;;;;;;5.38;3.75;;;;;;;-2.97;72.74;99397.31;4935267;29;20051;-71
2022/11/19 10:27:32;;;;;;;7.53;5.22;;;;;;;-2.89;72.75;99404.31;4902613;29;20082;-72
2022/11/19 10:30:05;;;;;;;7.38;4.40;;;;;;;-2.87;72.28;99412.78;4934520;29;20070;-71
2022/11/19 10:32:37;;;;;;;9.35;5.88;;;;;;;-2.88;72.43;99399.94;4917876;29;20047;-72
2022/11/19 10:35:10;;;;;;;9.35;6.03;;;;;;;-2.89;73.08;99398.31;4902441;29;20047;-71
2022/11/19 10:37:40;;;;;;;10.70;6.38;;;;;;;-2.87;72.53;99393.81;4917853;29;20090;-72
2022/11/19 10:40:13;;;;;;;10.18;4.88;;;;;;;-2.91;73.29;99397.66;4902149;29;20048;-71
2022/11/19 10:42:43;;;;;;;6.13;3.83;;;;;;;-2.92;73.12;99398.63;4917780;29;20047;-70
2022/11/19 10:45:18;;;;;;;9.23;6.35;;;;;;;-2.87;72.93;99391.22;4917097;29;20085;-69
2022/11/19 10:47:49;;;;;;;8.82;5.57;;;;;;;-2.83;73.37;99382.97;4901311;29;20039;-70
2022/11/19 10:50:20;;;;;;;7.43;4.82;;;;;;;-2.95;73.25;99381.59;4901510;29;20072;-72
2022/11/19 10:52:55;;;;;;;11.48;6.65;;;;;;;-2.93;73.73;99369.28;4934387;29;20055;-72
2022/11/19 10:55:25;;;;;;;8.35;5.72;;;;;;;-2.87;73.51;99383.44;4934408;29;20055;-71
2022/11/19 10:58:05;;;;;;;10.85;5.75;;;;;;;-2.89;73.52;99368.00;4917384;29;20051;-72
2022/11/19 11:00:30;;;;;;;11.82;6.90;;;;;;;-2.81;73.03;99360.28;4886131;29;20103;-71
2022/11/19 11:03:01;;;;;;;9.80;6.20;;;;;;;-2.87;73.23;99365.28;4934816;29;20043;-72
2022/11/19 11:05:28;;;;;;;9.65;5.82;;;;;;;-2.93;73.52;99365.88;4917634;29;20058;-71
2022/11/19 11:08:00;;;;;;;13.95;7.22;;;;;;;-2.89;74.00;99343.84;4917349;29;20071;-70
2022/11/19 11:10:46;;;;;;;10.82;6.22;;;;;;;-2.85;73.67;99352.97;4901996;29;20059;-71
2022/11/19 11:16:14;;;;;;;9.65;5.47;;;;;;;-2.86;73.65;99346.16;4934268;29;20055;-71
2022/11/19 11:18:40;;;;;;;8.32;5.55;;;;;;;-2.88;73.50;99341.13;4885832;29;20040;-71
2022/11/19 11:21:20;;;;;;;9.13;5.78;;;;;;;-2.88;73.70;99340.28;4917104;29;20057;-72
2022/11/19 11:23:55;;;;;;;12.48;6.70;;;;;;;-2.94;74.45;99331.34;4934512;29;20039;-73
2022/11/19 11:26:24;;;;;;;11.98;6.72;;;;;;;-2.90;74.38;99318.91;4917493;29;20051;-71
2022/11/19 11:29:04;;;;;;;12.02;7.10;;;;;;;-2.81;73.97;99331.75;4934009;29;20094;-71
2022/11/19 11:31:33;;;;;;;8.45;5.85;;;;;;;-2.87;74.23;99331.56;4933990;29;20091;-73
2022/11/19 11:34:01;;;;;;;11.45;7.40;;;;;;;-2.81;73.87;99325.75;4917270;29;20071;-71
2022/11/19 11:36:28;;;;;;;10.23;6.20;;;;;;;-2.82;73.89;99337.13;4917208;29;20044;-72
2022/11/19 11:38:57;;;;;;;11.25;6.25;;;;;;;-2.77;73.51;99327.06;4901575;29;20453;-71
2022/11/19 11:41:34;;;;;;;9.98;5.95;;;;;;;-2.73;73.57;99335.38;4901306;29;20040;-73
2022/11/19 11:44:04;;;;;;;12.77;6.68;;;;;;;-2.78;73.47;99326.25;4937272;29;20051;-69
2022/11/19 11:46:34;;;;;;;8.85;6.05;;;;;;;-2.71;73.24;99329.03;4920439;29;20169;-70
2022/11/19 11:49:00;;;;;;;;;;;;;;;-2.83;73.26;99338.88;4905582;29;20051;-66
2022/11/19 11:59:52;;;;;;;10.23;6.18;;;;;;;-2.75;74.42;99319.97;4919117;29;20058;-67
2022/11/19 12:02:31;;;;;;;13.02;7.38;;;;;;;-2.68;74.10;99313.16;4901676;29;20044;-67
2022/11/19 12:05:02;;;;;;;10.27;6.40;;;;;;;-2.59;73.58;99319.22;4919346;29;20071;-67
2022/11/19 12:07:54;;;;;;;11.02;6.22;;;;;;;-2.64;73.64;99313.69;4937707;29;20047;-67
2022/11/19 12:10:28;;;;;;;11.35;6.82;;;;;;;-2.69;74.11;99314.16;4904527;29;20099;-68